createdAt,value
2018-04-29T00:00:05.390Z,30.30
2018-04-29T00:02:32.935Z,23.73
2018-04-29T00:05:00.423Z,28.97
2018-04-29T00:07:27.958Z,20.50
2018-04-29T00:09:55.460Z,25.03
2018-04-29T00:12:22.999Z,23.73
2018-04-29T00:14:50.495Z,22.00
2018-04-29T00:17:18.047Z,28.20
2018-04-29T00:19:45.564Z,24.17
2018-04-29T00:22:13.108Z,22.90
2018-04-29T00:24:40.603Z,31.13
2018-04-29T00:27:08.140Z,21.17
2018-04-29T00:29:35.643Z,25.53
2018-04-29T00:32:03.191Z,24.83
2018-04-29T00:34:30.694Z,25.70
2018-04-29T00:36:58.225Z,22.93
2018-04-29T00:39:25.720Z,30.43
2018-04-29T00:41:53.250Z,18.50
2018-04-29T00:44:20.754Z,23.03
2018-04-29T00:46:48.290Z,25.83
2018-04-29T00:49:16.545Z,30.87
2018-04-29T00:51:56.842Z,32.60
2018-04-29T00:54:24.392Z,34.53
2018-04-29T00:56:51.943Z,34.33
2018-04-29T00:59:19.456Z,20.60
2018-04-29T01:01:46.998Z,34.73
2018-04-29T01:04:14.499Z,28.67
2018-04-29T01:06:42.003Z,24.67
2018-04-29T01:09:09.552Z,21.93
2018-04-29T01:11:37.066Z,26.30
2018-04-29T01:14:04.610Z,25.67
2018-04-29T01:16:32.098Z,26.10
2018-04-29T01:19:00.547Z,35.63
2018-04-29T01:21:28.052Z,26.13
2018-04-29T01:23:55.596Z,27.93
2018-04-29T01:26:23.103Z,31.30
2018-04-29T01:28:50.630Z,26.97
2018-04-29T01:31:18.135Z,29.80
2018-04-29T01:33:45.670Z,24.60
2018-04-29T01:36:13.163Z,24.50
2018-04-29T01:38:40.694Z,17.07
2018-04-29T01:41:08.191Z,19.40
2018-04-29T01:43:35.756Z,19.30
2018-04-29T01:46:04.026Z,20.67
2018-04-29T01:48:31.561Z,17.43
2018-04-29T01:50:59.059Z,21.17
2018-04-29T01:53:26.668Z,22.17
2018-04-29T01:55:54.166Z,27.20
2018-04-29T01:58:21.675Z,19.30
2018-04-29T02:00:49.208Z,21.13
2018-04-29T02:03:17.468Z,19.13
2018-04-29T02:05:45.768Z,24.03
2018-04-29T02:08:13.269Z,21.53
2018-04-29T02:10:40.805Z,23.23
2018-04-29T02:13:08.292Z,20.63
2018-04-29T02:15:35.834Z,25.40
2018-04-29T02:18:03.340Z,25.90
2018-04-29T02:20:30.879Z,17.80
2018-04-29T02:22:58.374Z,26.03
2018-04-29T02:25:25.916Z,31.10
2018-04-29T02:27:53.435Z,25.00
2018-04-29T02:30:21.538Z,24.23
2018-04-29T02:32:49.798Z,28.03
2018-04-29T02:35:17.343Z,31.30
2018-04-29T02:37:44.843Z,30.83
2018-04-29T02:40:12.405Z,24.63
2018-04-29T02:42:40.666Z,23.30
2018-04-29T02:45:08.179Z,25.43
2018-04-29T02:47:35.746Z,24.30
2018-04-29T02:50:03.257Z,25.60
2018-04-29T02:52:31.597Z,27.50
2018-04-29T02:54:59.099Z,20.00
2018-04-29T02:57:26.699Z,27.93
2018-04-29T02:59:54.296Z,21.93
2018-04-29T03:02:22.111Z,32.23
2018-04-29T03:04:49.614Z,21.30
2018-04-29T03:07:17.214Z,25.23
2018-04-29T03:09:44.718Z,24.00
2018-04-29T03:12:12.352Z,24.67
2018-04-29T03:14:40.052Z,26.03
2018-04-29T03:17:07.722Z,31.00
2018-04-29T03:19:35.328Z,21.83
2018-04-29T03:22:02.822Z,25.43
2018-04-29T03:24:30.370Z,24.60
2018-04-29T03:26:57.908Z,26.33
2018-04-29T03:29:25.449Z,20.80
2018-04-29T03:31:52.952Z,22.20
2018-04-29T03:34:20.823Z,23.13
2018-04-29T03:36:48.341Z,19.57
2018-04-29T03:39:15.885Z,29.10
2018-04-29T03:41:43.404Z,22.10
2018-04-29T03:44:10.958Z,22.50
2018-04-29T03:46:38.460Z,28.60
2018-04-29T03:49:06.722Z,26.60
2018-04-29T03:51:35.039Z,27.70
2018-04-29T03:54:02.584Z,24.63
2018-04-29T03:56:30.124Z,22.53
2018-04-29T03:59:10.146Z,27.27
2018-04-29T04:01:51.284Z,25.03
2018-04-29T04:04:17.359Z,28.93
2018-04-29T04:06:44.870Z,27.80
2018-04-29T04:09:12.370Z,20.10
2018-04-29T04:11:39.901Z,28.13
2018-04-29T04:14:07.406Z,24.83
2018-04-29T04:16:34.973Z,24.80
2018-04-29T04:19:03.255Z,28.83
2018-04-29T04:21:31.554Z,26.93
2018-04-29T04:23:59.054Z,25.33
2018-04-29T04:26:26.662Z,27.20
2018-04-29T04:28:54.162Z,28.70
2018-04-29T04:31:21.698Z,25.73
2018-04-29T04:33:49.198Z,34.20
2018-04-29T04:36:16.735Z,31.90
2018-04-29T04:38:44.242Z,28.43
2018-04-29T04:41:11.775Z,27.77
2018-04-29T04:43:39.266Z,22.90
2018-04-29T04:46:06.765Z,31.70
2018-04-29T04:48:34.318Z,24.43
2018-04-29T04:51:01.852Z,29.97
2018-04-29T04:53:29.355Z,30.87
2018-04-29T04:55:56.893Z,31.87
2018-04-29T04:58:24.385Z,26.73
2018-04-29T05:00:51.924Z,23.93
2018-04-29T05:03:19.430Z,29.20
2018-04-29T05:05:46.967Z,29.37
2018-04-29T05:08:14.475Z,23.20
2018-04-29T05:10:42.043Z,29.33
2018-04-29T05:13:09.558Z,27.23
2018-04-29T05:15:37.877Z,44.87
2018-04-29T05:18:05.400Z,23.20
2018-04-29T05:20:33.005Z,24.07
2018-04-29T05:23:00.528Z,26.53
2018-04-29T05:25:28.123Z,22.83
2018-04-29T05:27:55.764Z,24.60
2018-04-29T05:30:23.302Z,26.77
2018-04-29T05:32:52.775Z,30.57
2018-04-29T05:35:20.420Z,33.73
2018-04-29T05:37:47.938Z,32.97
2018-04-29T05:40:15.474Z,27.70
2018-04-29T05:42:43.740Z,29.17
2018-04-29T05:45:12.049Z,28.37
2018-04-29T05:47:39.549Z,25.07
2018-04-29T05:50:07.078Z,30.73
2018-04-29T05:52:34.576Z,27.20
2018-04-29T05:55:02.118Z,27.70
2018-04-29T05:57:29.617Z,26.43
2018-04-29T05:59:58.237Z,29.23
2018-04-29T06:02:25.729Z,23.97
2018-04-29T06:04:53.263Z,33.13
2018-04-29T06:07:20.767Z,23.20
2018-04-29T06:09:48.315Z,26.83
2018-04-29T06:12:15.830Z,30.27
2018-04-29T06:14:43.358Z,24.50
2018-04-29T06:17:11.622Z,25.50
2018-04-29T06:19:39.933Z,22.77
2018-04-29T06:22:07.447Z,28.57
2018-04-29T06:24:35.158Z,24.77
2018-04-29T06:27:02.658Z,23.97
2018-04-29T06:29:30.166Z,23.67
2018-04-29T06:31:57.707Z,20.20
2018-04-29T06:34:25.221Z,24.20
2018-04-29T06:36:52.788Z,19.77
2018-04-29T06:39:20.299Z,22.27
2018-04-29T06:41:47.845Z,25.20
2018-04-29T06:44:16.106Z,22.93
2018-04-29T06:46:44.477Z,20.40
2018-04-29T06:49:11.941Z,21.63
2018-04-29T06:51:39.492Z,16.70
2018-04-29T06:54:07.005Z,19.00
2018-04-29T06:56:34.626Z,14.97
2018-04-29T06:59:02.897Z,17.60
2018-04-29T07:01:31.316Z,16.63
2018-04-29T07:03:58.876Z,22.33
2018-04-29T07:06:26.390Z,26.00
2018-04-29T07:08:53.995Z,30.17
2018-04-29T07:11:22.120Z,23.23
2018-04-29T07:13:50.447Z,26.33
2018-04-29T07:16:18.030Z,17.57
2018-04-29T07:18:45.582Z,15.43
2018-04-29T07:21:13.140Z,17.83
2018-04-29T07:23:40.683Z,20.03
2018-04-29T07:26:08.277Z,19.43
2018-04-29T07:28:35.823Z,24.23
2018-04-29T07:31:03.304Z,23.17
2018-04-29T07:33:30.854Z,17.70
2018-04-29T07:35:58.393Z,14.43
2018-04-29T07:38:25.920Z,16.00
2018-04-29T07:40:54.187Z,15.43
2018-04-29T07:43:22.490Z,16.30
2018-04-29T07:45:50.006Z,20.23
2018-04-29T07:48:17.713Z,20.47
2018-04-29T07:50:45.973Z,12.90
2018-04-29T07:53:13.470Z,17.73
2018-04-29T07:55:41.000Z,16.17
2018-04-29T07:58:08.520Z,19.20
2018-04-29T08:00:36.062Z,17.73
2018-04-29T08:03:03.598Z,15.50
2018-04-29T08:05:31.144Z,20.83
2018-04-29T08:07:58.680Z,11.87
2018-04-29T08:10:26.229Z,7.97
2018-04-29T08:12:53.731Z,15.60
2018-04-29T08:15:21.332Z,18.40
2018-04-29T08:17:48.831Z,14.30
2018-04-29T08:20:16.387Z,12.00
2018-04-29T08:22:43.953Z,15.10
2018-04-29T08:25:11.482Z,15.00
2018-04-29T08:27:39.755Z,13.53
2018-04-29T08:30:08.166Z,16.57
2018-04-29T08:32:35.699Z,15.83
2018-04-29T08:35:04.040Z,17.60
2018-04-29T08:37:31.542Z,14.23
2018-04-29T08:39:59.043Z,14.83
2018-04-29T08:42:26.595Z,20.13
2018-04-29T08:44:54.107Z,12.33
2018-04-29T08:47:21.648Z,17.50
2018-04-29T08:49:49.169Z,13.30
2018-04-29T08:52:17.031Z,17.03
2018-04-29T08:54:44.582Z,16.67
2018-04-29T08:57:12.167Z,16.07
2018-04-29T08:59:39.727Z,15.80
2018-04-29T09:02:07.301Z,12.03
2018-04-29T09:04:34.803Z,9.07
2018-04-29T09:07:02.349Z,30.07
2018-04-29T09:09:30.660Z,16.63
2018-04-29T09:11:58.209Z,11.57
2018-04-29T09:14:25.757Z,14.40
2018-04-29T09:16:54.099Z,12.87
2018-04-29T09:19:21.586Z,10.97
2018-04-29T09:21:49.133Z,10.30
2018-04-29T09:24:17.423Z,12.37
2018-04-29T09:26:45.723Z,10.33
2018-04-29T09:29:13.238Z,13.53
2018-04-29T09:31:42.371Z,8.10
2018-04-29T09:34:09.881Z,13.60
2018-04-29T09:36:37.402Z,12.63
2018-04-29T09:39:05.818Z,11.30
2018-04-29T09:41:33.327Z,9.93
2018-04-29T09:44:01.794Z,13.33
2018-04-29T09:46:29.290Z,15.20
2018-04-29T09:48:57.170Z,10.50
2018-04-29T09:51:24.705Z,16.27
2018-04-29T09:53:53.184Z,14.83
2018-04-29T09:56:20.724Z,17.47
2018-04-29T09:58:48.348Z,11.40
2018-04-29T10:01:17.694Z,18.60
2018-04-29T10:03:47.758Z,16.00
2018-04-29T10:06:15.326Z,11.20
2018-04-29T10:08:43.854Z,14.63
2018-04-29T10:11:11.379Z,13.17
2018-04-29T10:13:39.726Z,10.97
2018-04-29T10:16:07.270Z,14.37
2018-04-29T10:18:34.856Z,11.63
2018-04-29T10:21:03.071Z,17.53
2018-04-29T10:23:31.340Z,17.13
2018-04-29T10:25:59.726Z,11.40
2018-04-29T10:28:27.290Z,12.50
2018-04-29T10:30:56.072Z,12.23
2018-04-29T10:33:24.191Z,11.37
2018-04-29T10:35:52.499Z,11.60
2018-04-29T10:38:19.959Z,20.50
2018-04-29T10:40:47.514Z,12.63
2018-04-29T10:43:15.042Z,17.00
2018-04-29T10:45:42.581Z,11.40
2018-04-29T10:48:10.094Z,14.77
2018-04-29T10:50:37.722Z,8.30
2018-04-29T10:53:05.947Z,6.77
2018-04-29T10:55:33.480Z,12.10
2018-04-29T10:58:00.979Z,7.20
2018-04-29T11:00:28.551Z,11.63
2018-04-29T11:02:56.931Z,9.53
2018-04-29T11:05:24.475Z,9.40
2018-04-29T11:07:51.977Z,12.73
2018-04-29T11:10:19.525Z,7.60
2018-04-29T11:12:47.040Z,15.00
2018-04-29T11:15:14.596Z,16.10
2018-04-29T11:17:42.916Z,8.40
2018-04-29T11:20:10.439Z,13.93
2018-04-29T11:22:38.003Z,11.20
2018-04-29T11:25:05.508Z,8.93
2018-04-29T11:27:33.043Z,9.87
2018-04-29T11:30:00.538Z,11.57
2018-04-29T11:32:28.079Z,13.93
2018-04-29T11:34:55.586Z,5.53
2018-04-29T11:37:23.130Z,11.90
2018-04-29T11:39:50.643Z,8.60
2018-04-29T11:42:18.188Z,9.70
2018-04-29T11:44:45.698Z,8.70
2018-04-29T11:47:13.260Z,7.63
2018-04-29T11:49:40.775Z,10.33
2018-04-29T11:52:08.325Z,9.00
2018-04-29T11:54:35.818Z,15.53
2018-04-29T11:57:03.539Z,11.57
2018-04-29T11:59:31.042Z,9.80
2018-04-29T12:01:58.582Z,8.23
2018-04-29T12:04:26.109Z,6.93
2018-04-29T12:06:53.612Z,14.47
2018-04-29T12:09:21.151Z,16.77
2018-04-29T12:11:48.646Z,13.87
2018-04-29T12:14:16.195Z,9.90
2018-04-29T12:16:43.694Z,5.07
2018-04-29T12:19:12.004Z,10.47
2018-04-29T12:21:39.559Z,14.33
2018-04-29T12:24:10.089Z,11.50
2018-04-29T12:26:37.623Z,12.43
2018-04-29T12:29:05.184Z,14.47
2018-04-29T12:31:32.703Z,9.50
2018-04-29T12:34:00.257Z,11.83
2018-04-29T12:36:27.852Z,9.80
2018-04-29T12:38:55.468Z,8.97
2018-04-29T12:41:22.983Z,13.80
2018-04-29T12:43:50.503Z,12.13
2018-04-29T12:46:18.118Z,14.60
2018-04-29T12:48:45.618Z,7.97
2018-04-29T12:51:13.307Z,8.97
2018-04-29T12:53:41.801Z,13.47
2018-04-29T12:56:09.425Z,15.80
2018-04-29T12:58:36.966Z,11.43
2018-04-29T13:01:04.522Z,10.13
2018-04-29T13:03:32.032Z,15.07
2018-04-29T13:05:59.608Z,12.20
2018-04-29T13:08:27.115Z,11.43
2018-04-29T13:10:54.664Z,12.20
2018-04-29T13:13:22.174Z,15.33
2018-04-29T13:15:49.707Z,10.37
2018-04-29T13:18:17.241Z,23.57
2018-04-29T13:20:44.742Z,17.23
2018-04-29T13:23:13.057Z,13.67
2018-04-29T13:25:40.559Z,11.40
2018-04-29T13:28:08.126Z,10.33
2018-04-29T13:30:36.433Z,14.43
2018-04-29T13:33:03.972Z,8.67
2018-04-29T13:35:31.459Z,9.73
2018-04-29T13:37:59.776Z,11.77
2018-04-29T13:40:27.284Z,12.93
2018-04-29T13:42:54.833Z,8.43
2018-04-29T13:45:22.363Z,12.77
2018-04-29T13:47:49.917Z,8.53
2018-04-29T13:50:17.477Z,21.03
2018-04-29T13:52:45.067Z,10.10
2018-04-29T13:55:12.615Z,11.17
2018-04-29T13:57:40.890Z,10.90
2018-04-29T14:00:09.219Z,9.20
2018-04-29T14:02:36.732Z,7.97
2018-04-29T14:05:04.263Z,11.10
2018-04-29T14:07:31.765Z,9.57
2018-04-29T14:09:59.306Z,11.40
2018-04-29T14:12:28.503Z,10.30
2018-04-29T14:14:56.810Z,13.77
2018-04-29T14:17:24.315Z,9.30
2018-04-29T14:19:52.080Z,15.70
2018-04-29T14:22:19.562Z,9.10
2018-04-29T14:24:47.901Z,12.17
2018-04-29T14:27:15.411Z,8.47
2018-04-29T14:29:42.956Z,13.03
2018-04-29T14:32:11.225Z,25.87
2018-04-29T14:34:39.570Z,13.60
2018-04-29T14:37:07.078Z,18.77
2018-04-29T14:39:34.743Z,14.50
2018-04-29T14:42:02.255Z,12.00
2018-04-29T14:44:29.881Z,9.53
2018-04-29T14:46:57.437Z,12.73
2018-04-29T14:49:25.008Z,8.93
2018-04-29T14:51:52.520Z,12.20
2018-04-29T14:54:20.830Z,10.23
2018-04-29T14:56:48.378Z,13.13
2018-04-29T14:59:15.958Z,10.23
2018-04-29T15:01:43.601Z,8.90
2018-04-29T15:04:11.113Z,10.93
2018-04-29T15:06:38.743Z,9.33
2018-04-29T15:09:06.316Z,10.73
2018-04-29T15:11:33.852Z,11.00
2018-04-29T15:14:01.355Z,11.50
2018-04-29T15:16:28.857Z,12.23
2018-04-29T15:18:59.309Z,12.43
2018-04-29T15:21:26.811Z,13.23
2018-04-29T15:23:54.371Z,9.37
2018-04-29T15:26:21.876Z,11.10
2018-04-29T15:28:49.545Z,14.07
2018-04-29T15:31:17.076Z,15.50
2018-04-29T15:33:44.620Z,9.50
2018-04-29T15:36:12.904Z,10.80
2018-04-29T15:38:41.225Z,11.70
2018-04-29T15:41:08.720Z,11.70
2018-04-29T15:43:36.257Z,13.80
2018-04-29T15:46:03.762Z,10.93
2018-04-29T15:48:32.071Z,13.20
2018-04-29T15:50:59.590Z,9.50
2018-04-29T15:53:27.139Z,9.47
2018-04-29T15:55:54.674Z,10.70
2018-04-29T15:58:22.174Z,12.13
2018-04-29T16:00:50.477Z,11.07
2018-04-29T16:03:18.033Z,12.20
2018-04-29T16:05:45.578Z,11.50
2018-04-29T16:08:13.102Z,8.97
2018-04-29T16:10:40.681Z,12.00
2018-04-29T16:13:08.205Z,9.37
2018-04-29T16:15:35.734Z,8.63
2018-04-29T16:18:03.237Z,14.30
2018-04-29T16:20:30.783Z,9.17
2018-04-29T16:22:58.301Z,13.57
2018-04-29T16:25:25.856Z,15.60
2018-04-29T16:27:55.211Z,19.20
2018-04-29T16:30:22.711Z,13.73
2018-04-29T16:32:50.242Z,19.63
2018-04-29T16:35:18.525Z,12.10
2018-04-29T16:37:46.107Z,13.17
2018-04-29T16:40:13.608Z,13.17
2018-04-29T16:42:41.173Z,11.10
2018-04-29T16:45:08.694Z,11.77
2018-04-29T16:47:36.252Z,16.17
2018-04-29T16:50:03.825Z,11.70
2018-04-29T16:52:31.369Z,12.27
2018-04-29T16:54:58.871Z,10.40
2018-04-29T16:57:26.424Z,10.60
2018-04-29T16:59:53.919Z,14.70
2018-04-29T17:02:21.467Z,12.90
2018-04-29T17:04:49.745Z,15.10
2018-04-29T17:07:17.283Z,16.70
2018-04-29T17:09:44.790Z,12.50
2018-04-29T17:12:12.335Z,15.83
2018-04-29T17:14:40.595Z,14.60
2018-04-29T17:17:08.173Z,11.77
2018-04-29T17:19:35.714Z,23.40
2018-04-29T17:22:03.230Z,16.40
2018-04-29T17:24:30.799Z,11.63
2018-04-29T17:26:58.299Z,11.67
2018-04-29T17:29:26.645Z,11.50
2018-04-29T17:31:54.115Z,12.47
2018-04-29T17:34:21.656Z,14.63
2018-04-29T17:36:49.183Z,11.37
2018-04-29T17:39:16.762Z,19.97
2018-04-29T17:41:44.262Z,16.10
2018-04-29T17:44:11.890Z,15.53
2018-04-29T17:46:39.340Z,19.93
2018-04-29T17:49:10.674Z,10.47
2018-04-29T17:51:38.230Z,14.13
2018-04-29T17:54:05.784Z,12.80
2018-04-29T17:56:33.297Z,13.40
2018-04-29T17:59:00.857Z,18.97
2018-04-29T18:01:28.426Z,17.57
2018-04-29T18:03:56.251Z,15.33
2018-04-29T18:06:23.758Z,13.90
2018-04-29T18:08:52.040Z,12.87
2018-04-29T18:11:20.354Z,17.63
2018-04-29T18:13:47.881Z,15.93
2018-04-29T18:16:15.447Z,12.67
2018-04-29T18:18:43.663Z,16.27
2018-04-29T18:21:11.327Z,11.90
2018-04-29T18:23:39.549Z,15.40
2018-04-29T18:26:07.124Z,16.97
2018-04-29T18:28:34.659Z,18.87
2018-04-29T18:31:02.221Z,15.30
2018-04-29T18:33:30.544Z,28.33
2018-04-29T18:35:58.091Z,21.73
2018-04-29T18:38:25.590Z,26.10
2018-04-29T18:40:53.123Z,24.00
2018-04-29T18:43:20.799Z,19.90
2018-04-29T18:45:48.359Z,17.23
2018-04-29T18:48:15.875Z,18.83
2018-04-29T18:50:43.564Z,17.63
2018-04-29T18:53:10.965Z,15.33
2018-04-29T18:55:39.272Z,19.33
2018-04-29T18:58:06.780Z,24.23
2018-04-29T19:00:34.296Z,22.10
2018-04-29T19:03:01.864Z,27.60
2018-04-29T19:05:41.204Z,30.90
2018-04-29T19:08:08.776Z,17.00
2018-04-29T19:10:36.283Z,22.80
2018-04-29T19:13:04.590Z,19.60
2018-04-29T19:15:32.126Z,21.47
2018-04-29T19:17:59.674Z,28.03
2018-04-29T19:20:27.960Z,17.67
2018-04-29T19:22:56.272Z,22.87
2018-04-29T19:25:23.792Z,23.33
2018-04-29T19:27:51.331Z,18.40
2018-04-29T19:30:18.874Z,15.70
2018-04-29T19:32:47.243Z,26.20
2018-04-29T19:35:14.764Z,15.13
2018-04-29T19:37:42.331Z,31.10
2018-04-29T19:40:09.872Z,16.40
2018-04-29T19:42:38.243Z,23.33
2018-04-29T19:45:05.748Z,25.13
2018-04-29T19:47:33.254Z,23.17
2018-04-29T19:50:01.583Z,14.30
2018-04-29T19:52:29.091Z,15.67
2018-04-29T19:54:56.679Z,18.70
2018-04-29T19:57:24.207Z,25.30
2018-04-29T19:59:51.771Z,16.30
2018-04-29T20:02:20.055Z,14.73
2018-04-29T20:04:48.412Z,17.43
2018-04-29T20:07:15.946Z,18.57
2018-04-29T20:09:43.493Z,18.73
2018-04-29T20:12:11.005Z,20.27
2018-04-29T20:14:38.557Z,15.00
2018-04-29T20:17:06.833Z,16.20
2018-04-29T20:19:35.192Z,14.13
2018-04-29T20:22:02.752Z,21.80
2018-04-29T20:24:30.367Z,16.53
2018-04-29T20:26:58.004Z,14.97
2018-04-29T20:29:25.520Z,27.80
2018-04-29T20:31:53.221Z,17.53
2018-04-29T20:34:20.778Z,24.70
2018-04-29T20:36:48.414Z,18.73
2018-04-29T20:39:17.099Z,20.37
2018-04-29T20:41:44.695Z,18.27
2018-04-29T20:44:12.977Z,16.23
2018-04-29T20:46:41.429Z,16.03
2018-04-29T20:49:09.019Z,17.37
2018-04-29T20:51:36.642Z,17.37
2018-04-29T20:54:04.182Z,19.77
2018-04-29T20:56:31.726Z,20.43
2018-04-29T20:58:59.317Z,21.83
2018-04-29T21:01:26.872Z,20.43
2018-04-29T21:03:56.591Z,26.53
2018-04-29T21:06:25.654Z,19.87
2018-04-29T21:08:53.162Z,23.67
2018-04-29T21:11:21.594Z,15.03
2018-04-29T21:13:49.153Z,16.90
2018-04-29T21:16:16.665Z,15.33
2018-04-29T21:18:46.250Z,26.17
2018-04-29T21:21:13.975Z,19.20
2018-04-29T21:23:41.509Z,21.70
2018-04-29T21:26:09.030Z,20.90
2018-04-29T21:28:36.598Z,21.90
2018-04-29T21:31:04.122Z,20.30
2018-04-29T21:33:31.674Z,19.53
2018-04-29T21:35:59.172Z,22.77
2018-04-29T21:38:26.740Z,20.50
2018-04-29T21:40:54.262Z,20.20
2018-04-29T21:43:21.799Z,26.27
2018-04-29T21:45:53.243Z,21.20
2018-04-29T21:48:21.739Z,21.63
2018-04-29T21:50:49.239Z,19.03
2018-04-29T21:53:16.747Z,19.80
2018-04-29T21:55:45.244Z,22.10
2018-04-29T21:58:12.746Z,29.70
2018-04-29T22:00:41.665Z,20.87
2018-04-29T22:03:09.242Z,18.67
2018-04-29T22:05:36.882Z,19.10
2018-04-29T22:08:06.115Z,19.40
2018-04-29T22:10:33.647Z,23.93
2018-04-29T22:13:03.047Z,23.00
2018-04-29T22:15:30.587Z,20.03
2018-04-29T22:17:58.853Z,21.60
2018-04-29T22:20:26.390Z,21.87
2018-04-29T22:22:53.885Z,22.27
2018-04-29T22:25:21.431Z,24.40
2018-04-29T22:27:49.703Z,27.43
2018-04-29T22:30:17.197Z,25.03
2018-04-29T22:32:44.759Z,23.20
2018-04-29T22:35:12.268Z,28.60
2018-04-29T22:37:39.819Z,28.77
2018-04-29T22:40:07.357Z,21.47
2018-04-29T22:42:34.919Z,24.63
2018-04-29T22:45:02.427Z,25.27
2018-04-29T22:47:29.973Z,24.07
2018-04-29T22:49:57.470Z,22.70
2018-04-29T22:52:25.043Z,26.53
2018-04-29T22:54:53.186Z,37.23
2018-04-29T22:57:21.604Z,25.77
2018-04-29T22:59:49.174Z,20.30
2018-04-29T23:02:16.737Z,25.40
2018-04-29T23:04:44.481Z,37.97
2018-04-29T23:07:11.984Z,23.87
2018-04-29T23:09:39.564Z,28.03
2018-04-29T23:12:07.860Z,24.20
2018-04-29T23:14:35.504Z,28.50
2018-04-29T23:17:04.591Z,26.50
2018-04-29T23:19:32.901Z,29.57
2018-04-29T23:22:00.462Z,22.70
2018-04-29T23:24:28.050Z,23.60
2018-04-29T23:26:55.546Z,26.33
2018-04-29T23:29:23.095Z,30.00
2018-04-29T23:31:50.600Z,31.53
2018-04-29T23:34:18.175Z,26.60
2018-04-29T23:36:45.856Z,24.43
2018-04-29T23:39:15.167Z,34.07
2018-04-29T23:41:44.743Z,21.90
2018-04-29T23:44:14.300Z,28.50
2018-04-29T23:46:42.040Z,23.37
2018-04-29T23:49:09.560Z,22.63
2018-04-29T23:51:38.530Z,32.67
2018-04-29T23:54:06.036Z,30.70
2018-04-29T23:56:33.584Z,28.17
2018-04-29T23:59:01.089Z,27.30
